Time;durP1;ratioP1;P1;durP2;ratioP2;P2;SDS_P1;SDS_P2;PMS_P1;PMS_P2;Temp;Humidity;BMP_temperature;BMP_pressure;BME280_temperature;BME280_humidity;BME280_pressure;Samples;Min_cycle;Max_cycle;Signal;HPM_P1;HPM_P2
2022/12/24 00:02:17;;;;;;;145.98;87.13;;;;;;;;;;4923217;29;20067;-84
2022/12/24 00:04:52;;;;;;;134.68;78.95;;;;;;;;;;4928282;29;20044;-83
2022/12/24 00:07:18;;;;;;;123.95;69.30;;;;;;;;;;4922923;29;20044;-84
2022/12/24 00:09:44;;;;;;;121.07;70.50;;;;;;;;;;4922829;29;20164;-83
2022/12/24 00:12:10;;;;;;;130.55;73.03;;;;;;;;;;4906308;29;20107;-84
2022/12/24 00:14:36;;;;;;;128.00;73.63;;;;;;;;;;4922781;29;20047;-84
2022/12/24 00:17:02;;;;;;;124.22;71.40;;;;;;;;;;4922702;29;20115;-84
2022/12/24 00:19:28;;;;;;;125.55;75.28;;;;;;;;;;4905952;29;20060;-83
2022/12/24 00:24:58;;;;;;;140.57;77.30;;;;;;;;;;4922501;29;20047;-84
2022/12/24 00:27:24;;;;;;;178.48;85.85;;;;;;;;;;4922560;29;20032;-84
2022/12/24 00:29:50;;;;;;;190.75;90.70;;;;;;;;;;4905868;29;20127;-84
2022/12/24 00:32:16;;;;;;;179.85;86.57;;;;;;;;;;4922698;29;20032;-84
2022/12/24 00:34:42;;;;;;;192.05;90.32;;;;;;;;;;4905706;29;20032;-84
2022/12/24 00:37:08;;;;;;;158.25;80.97;;;;;;;;;;4922522;29;20058;-84
2022/12/24 00:39:34;;;;;;;123.95;68.65;;;;;;;;;;4905880;29;20170;-83
2022/12/24 00:42:00;;;;;;;90.40;56.60;;;;;;;;;;4921961;29;20020;-83
2022/12/24 00:44:26;;;;;;;96.03;55.10;;;;;;;;;;4922337;29;20031;-83
2022/12/24 00:46:52;;;;;;;101.43;57.35;;;;;;;;;;4937581;29;20442;-84
2022/12/24 00:49:19;;;;;;;102.38;57.92;;;;;;;;;;4933216;29;20059;-83
2022/12/24 00:51:45;;;;;;;104.13;60.63;;;;;;;;;;4922391;29;20040;-83
2022/12/24 00:54:12;;;;;;;103.32;59.42;;;;;;;;;;4922028;29;20427;-83
2022/12/24 00:56:38;;;;;;;103.78;58.42;;;;;;;;;;4920537;29;20040;-84
2022/12/24 00:59:04;;;;;;;126.90;67.15;;;;;;;;;;4922270;29;20028;-83
2022/12/24 01:01:30;;;;;;;174.48;77.32;;;;;;;;;;4933278;29;20026;-84
2022/12/24 01:05:08;;;;;;;153.90;76.85;;;;;;;;;;4941276;29;20387;-83
2022/12/24 01:06:43;;;;;;;115.88;68.78;;;;;;;;;;4940728;29;20484;-83
2022/12/24 01:09:09;;;;;;;112.28;66.15;;;;;;;;;;4940825;29;20036;-83
2022/12/24 01:11:35;;;;;;;102.97;59.85;;;;;;;;;;4940663;29;20031;-83
2022/12/24 01:14:01;;;;;;;106.97;59.00;;;;;;;;;;4930788;29;20368;-83
2022/12/24 01:16:27;;;;;;;93.88;52.55;;;;;;;;;;4921816;29;20419;-84
2022/12/24 01:18:53;;;;;;;86.78;49.85;;;;;;;;;;4920446;29;20044;-84
2022/12/24 01:22:10;;;;;;;82.75;48.30;;;;;;;;;;4921764;29;20028;-84
2022/12/24 01:24:36;;;;;;;80.65;45.88;;;;;;;;;;4902650;29;20033;-84
2022/12/24 01:27:02;;;;;;;78.68;46.72;;;;;;;;;;4902229;29;20511;-83
2022/12/24 01:29:29;;;;;;;94.18;52.17;;;;;;;;;;4921531;29;20040;-83
2022/12/24 01:31:55;;;;;;;96.57;55.67;;;;;;;;;;4921073;29;20024;-83
2022/12/24 01:34:21;;;;;;;97.55;58.03;;;;;;;;;;4921417;29;20028;-83
2022/12/24 01:36:47;;;;;;;96.38;57.40;;;;;;;;;;4926842;29;20110;-83
2022/12/24 01:39:13;;;;;;;100.63;59.30;;;;;;;;;;4923533;29;20070;-84
2022/12/24 01:44:25;;;;;;;79.78;47.70;;;;;;;;;;4936291;29;20063;-85
2022/12/24 01:46:53;;;;;;;70.38;43.85;;;;;;;;;;4929154;29;20035;-84
2022/12/24 01:49:19;;;;;;;68.40;42.35;;;;;;;;;;4940453;29;20028;-84
2022/12/24 01:51:47;;;;;;;71.68;42.10;;;;;;;;;;4940075;29;20106;-84
2022/12/24 01:54:17;;;;;;;66.28;40.35;;;;;;;;;;4940191;29;20087;-84
2022/12/24 01:56:44;;;;;;;65.25;38.83;;;;;;;;;;4923427;29;20032;-84
2022/12/24 01:59:12;;;;;;;60.08;36.20;;;;;;;;;;4940369;29;20059;-84
2022/12/24 02:01:39;;;;;;;67.53;39.10;;;;;;;;;;4923219;29;20034;-84
2022/12/24 02:04:11;;;;;;;60.25;37.97;;;;;;;;;;4923402;29;20032;-84
2022/12/24 02:06:37;;;;;;;64.35;38.95;;;;;;;;;;4939719;29;20426;-84
2022/12/24 02:09:03;;;;;;;64.72;39.85;;;;;;;;;;4908737;29;20048;-83
2022/12/24 02:11:30;;;;;;;72.95;41.72;;;;;;;;;;4904269;29;20139;-84
2022/12/24 02:14:00;;;;;;;68.35;42.38;;;;;;;;;;4921022;29;20062;-84
2022/12/24 02:16:29;;;;;;;66.88;43.90;;;;;;;;;;4920909;29;20044;-83
2022/12/24 02:18:58;;;;;;;72.45;44.30;;;;;;;;;;4920891;29;20025;-84
2022/12/24 02:21:33;;;;;;;71.57;42.72;;;;;;;;;;4921069;29;20032;-84
2022/12/24 02:24:20;;;;;;;76.45;46.03;;;;;;;;;;4904206;29;20420;-84
2022/12/24 02:26:55;;;;;;;71.88;44.63;;;;;;;;;;4920985;29;20103;-83
2022/12/24 02:29:21;;;;;;;68.40;43.20;;;;;;;;;;4929631;29;20032;-83
2022/12/24 02:31:47;;;;;;;64.97;39.92;;;;;;;;;;4920682;29;20080;-83
2022/12/24 02:34:16;;;;;;;57.38;37.13;;;;;;;;;;4920802;29;20036;-83
2022/12/24 02:36:47;;;;;;;56.78;35.83;;;;;;;;;;4920895;29;20029;-83
2022/12/24 02:39:17;;;;;;;58.63;35.63;;;;;;;;;;4920528;29;20041;-83
2022/12/24 02:42:06;;;;;;;57.08;35.15;;;;;;;;;;4920585;29;20036;-83
2022/12/24 02:44:42;;;;;;;56.90;35.63;;;;;;;;;;4903857;29;20040;-83
2022/12/24 02:47:09;;;;;;;50.17;32.47;;;;;;;;;;4919604;29;20407;-84
2022/12/24 02:49:36;;;;;;;53.83;34.05;;;;;;;;;;4927662;29;20036;-84
2022/12/24 02:52:02;;;;;;;51.13;34.33;;;;;;;;;;4920506;29;20032;-83
2022/12/24 02:54:28;;;;;;;50.78;32.92;;;;;;;;;;4903844;29;20036;-83
2022/12/24 02:57:13;;;;;;;58.83;35.28;;;;;;;;;;4904150;29;20103;-84
2022/12/24 02:59:42;;;;;;;52.25;34.33;;;;;;;;;;4929677;29;20027;-84
2022/12/24 03:02:13;;;;;;;55.92;34.50;;;;;;;;;;4939635;29;20031;-84
2022/12/24 03:04:59;;;;;;;51.78;32.65;;;;;;;;;;4921757;29;20431;-84
2022/12/24 03:07:25;;;;;;;52.10;33.85;;;;;;;;;;4902206;29;20100;-84
2022/12/24 03:10:00;;;;;;;57.58;36.60;;;;;;;;;;4922249;29;20036;-83
2022/12/24 03:12:37;;;;;;;58.72;36.95;;;;;;;;;;4907253;29;20431;-83
2022/12/24 03:15:04;;;;;;;59.40;36.15;;;;;;;;;;4921232;29;20091;-83
2022/12/24 03:17:31;;;;;;;61.85;35.95;;;;;;;;;;4942849;29;20107;-83
2022/12/24 03:19:57;;;;;;;60.25;35.78;;;;;;;;;;4942623;29;20028;-83
2022/12/24 03:23:00;;;;;;;67.68;38.78;;;;;;;;;;4942645;29;20103;-83
2022/12/24 03:25:26;;;;;;;67.95;36.58;;;;;;;;;;4929126;29;20057;-83
2022/12/24 03:27:53;;;;;;;66.18;36.72;;;;;;;;;;4923455;29;20411;-83
2022/12/24 03:30:20;;;;;;;63.95;36.72;;;;;;;;;;4937581;29;20035;-83
2022/12/24 03:32:46;;;;;;;98.82;48.42;;;;;;;;;;4942774;29;20098;-83
2022/12/24 03:35:13;;;;;;;93.78;46.47;;;;;;;;;;4942670;29;20047;-83
2022/12/24 03:37:39;;;;;;;82.32;43.83;;;;;;;;;;4942280;29;20032;-83
2022/12/24 03:40:06;;;;;;;79.95;44.15;;;;;;;;;;4942376;29;20055;-83
2022/12/24 03:42:32;;;;;;;67.45;39.85;;;;;;;;;;4925527;29;20118;-83
2022/12/24 03:44:58;;;;;;;70.47;39.90;;;;;;;;;;4942247;29;20039;-83
2022/12/24 03:47:24;;;;;;;60.03;35.33;;;;;;;;;;4942283;29;20330;-84
2022/12/24 03:49:50;;;;;;;53.45;32.80;;;;;;;;;;4939445;29;21607;-83
2022/12/24 03:55:20;;;;;;;43.65;29.40;;;;;;;;;;4923238;29;20328;-84
2022/12/24 03:57:46;;;;;;;44.42;29.08;;;;;;;;;;4922316;29;20067;-83
2022/12/24 04:00:12;;;;;;;44.17;28.60;;;;;;;;;;4923363;29;20082;-83
2022/12/24 04:02:39;;;;;;;41.05;28.30;;;;;;;;;;4922966;29;20028;-83
2022/12/24 04:05:05;;;;;;;49.67;28.35;;;;;;;;;;4921665;29;20043;-83
2022/12/24 04:07:32;;;;;;;44.58;28.20;;;;;;;;;;4922667;29;20028;-83
2022/12/24 04:09:59;;;;;;;37.10;26.05;;;;;;;;;;4906153;29;20043;-83
2022/12/24 04:12:25;;;;;;;39.20;26.30;;;;;;;;;;4923011;29;20031;-83
2022/12/24 04:14:51;;;;;;;40.58;26.20;;;;;;;;;;4905275;29;20051;-83
2022/12/24 04:17:17;;;;;;;44.40;26.80;;;;;;;;;;4922857;29;20056;-83
2022/12/24 04:19:43;;;;;;;36.55;25.58;;;;;;;;;;4922927;29;20028;-84
2022/12/24 04:22:09;;;;;;;39.67;26.38;;;;;;;;;;4941179;29;20044;-85
2022/12/24 04:24:35;;;;;;;40.70;25.90;;;;;;;;;;4941460;29;20075;-84
2022/12/24 04:27:01;;;;;;;38.90;25.38;;;;;;;;;;4924830;29;20028;-83
2022/12/24 04:29:27;;;;;;;39.50;25.70;;;;;;;;;;4941589;29;20355;-84
2022/12/24 04:31:53;;;;;;;40.60;25.60;;;;;;;;;;4941830;29;20116;-84
2022/12/24 04:34:19;;;;;;;36.75;25.60;;;;;;;;;;4941848;29;20167;-84
2022/12/24 04:36:45;;;;;;;39.45;25.27;;;;;;;;;;4932648;29;20024;-84
2022/12/24 04:39:11;;;;;;;39.67;24.58;;;;;;;;;;4922191;29;20028;-83
2022/12/24 04:41:38;;;;;;;46.30;27.42;;;;;;;;;;4922629;29;20044;-83
2022/12/24 04:44:04;;;;;;;45.33;28.42;;;;;;;;;;4921921;29;20036;-83
2022/12/24 04:46:30;;;;;;;50.75;31.60;;;;;;;;;;4921259;29;20419;-83
2022/12/24 04:48:56;;;;;;;45.05;29.45;;;;;;;;;;4922243;29;20035;-83
2022/12/24 04:51:23;;;;;;;51.67;31.00;;;;;;;;;;4920992;29;20068;-83
2022/12/24 04:53:49;;;;;;;50.20;30.40;;;;;;;;;;4921125;29;20411;-84
2022/12/24 04:56:17;;;;;;;45.03;29.17;;;;;;;;;;4922070;29;20033;-83
2022/12/24 04:58:43;;;;;;;69.68;38.25;;;;;;;;;;4922166;29;20047;-83
2022/12/24 05:01:14;;;;;;;72.85;38.22;;;;;;;;;;4920727;29;20031;-87
2022/12/24 05:03:40;;;;;;;51.40;30.52;;;;;;;;;;4933376;29;20395;-84
2022/12/24 05:06:08;;;;;;;49.15;29.50;;;;;;;;;;4940971;29;20028;-84
2022/12/24 05:08:34;;;;;;;47.13;31.10;;;;;;;;;;4940876;29;20059;-85
2022/12/24 05:11:01;;;;;;;54.80;32.13;;;;;;;;;;4941172;29;20319;-85
2022/12/24 05:13:27;;;;;;;55.65;32.90;;;;;;;;;;4940749;29;20105;-84
2022/12/24 05:15:53;;;;;;;69.47;39.72;;;;;;;;;;4940714;29;20042;-84
2022/12/24 05:18:20;;;;;;;81.97;46.92;;;;;;;;;;4926644;29;20038;-84
2022/12/24 05:20:47;;;;;;;70.20;40.28;;;;;;;;;;4921733;29;20330;-85
2022/12/24 05:28:46;;;;;;;60.00;35.38;;;;;;;;;;4921794;29;20080;-84
2022/12/24 05:31:12;;;;;;;59.05;36.13;;;;;;;;;;4921639;29;20034;-83
2022/12/24 05:33:38;;;;;;;64.43;38.90;;;;;;;;;;4920806;29;20055;-84
2022/12/24 05:36:16;;;;;;;56.15;34.55;;;;;;;;;;4921686;29;20040;-84
2022/12/24 05:38:42;;;;;;;55.97;33.83;;;;;;;;;;4921306;29;20032;-84
2022/12/24 05:41:08;;;;;;;60.88;40.72;;;;;;;;;;4921419;29;20032;-84
2022/12/24 05:43:35;;;;;;;78.80;46.42;;;;;;;;;;4921670;29;20048;-84
2022/12/24 05:46:02;;;;;;;80.32;46.83;;;;;;;;;;4921207;29;20035;-84
2022/12/24 05:48:28;;;;;;;71.47;43.88;;;;;;;;;;4921444;29;20111;-84
2022/12/24 05:50:54;;;;;;;73.55;43.22;;;;;;;;;;4921433;29;20103;-83
2022/12/24 05:53:39;;;;;;;104.32;53.03;;;;;;;;;;4920878;29;20107;-84
2022/12/24 05:56:06;;;;;;;164.68;77.30;;;;;;;;;;4920944;29;20039;-84
2022/12/24 05:58:32;;;;;;;164.85;75.82;;;;;;;;;;4921109;29;20028;-84
2022/12/24 06:01:00;;;;;;;141.07;71.47;;;;;;;;;;4921124;29;20038;-84
2022/12/24 06:03:26;;;;;;;125.18;73.65;;;;;;;;;;4921277;29;20036;-84
2022/12/24 06:06:02;;;;;;;118.55;72.88;;;;;;;;;;4921049;29;20025;-84
2022/12/24 06:08:29;;;;;;;95.72;62.28;;;;;;;;;;4910069;29;20422;-84
2022/12/24 06:10:56;;;;;;;91.55;57.03;;;;;;;;;;4902023;29;20122;-84
2022/12/24 06:13:24;;;;;;;86.20;53.80;;;;;;;;;;4902425;29;20076;-84
2022/12/24 06:15:50;;;;;;;87.63;52.15;;;;;;;;;;4901983;29;20048;-84
2022/12/24 06:18:16;;;;;;;85.13;50.42;;;;;;;;;;4885555;29;20099;-84
2022/12/24 06:20:42;;;;;;;91.57;52.17;;;;;;;;;;4913438;29;20039;-85
2022/12/24 06:23:09;;;;;;;90.32;54.53;;;;;;;;;;4920656;29;20012;-84
2022/12/24 06:25:35;;;;;;;77.07;46.50;;;;;;;;;;4890027;29;20033;-84
2022/12/24 06:28:01;;;;;;;66.10;42.83;;;;;;;;;;4906024;29;20028;-85
2022/12/24 06:30:27;;;;;;;76.78;48.58;;;;;;;;;;4921166;29;20055;-83
2022/12/24 06:32:53;;;;;;;76.53;48.33;;;;;;;;;;4921134;29;20047;-84
2022/12/24 06:35:19;;;;;;;80.00;51.70;;;;;;;;;;4921059;29;20039;-83
2022/12/24 06:38:00;;;;;;;79.68;49.15;;;;;;;;;;4921042;29;20024;-84
2022/12/24 06:40:27;;;;;;;74.47;42.50;;;;;;;;;;4920620;29;20036;-83
2022/12/24 06:42:53;;;;;;;70.20;40.95;;;;;;;;;;4920070;29;20032;-83
2022/12/24 06:45:19;;;;;;;72.47;46.53;;;;;;;;;;4893636;29;20119;-83
2022/12/24 06:47:45;;;;;;;68.95;44.15;;;;;;;;;;4909923;29;20028;-83
2022/12/24 06:50:11;;;;;;;73.10;43.83;;;;;;;;;;4924407;29;20040;-84
2022/12/24 06:55:53;;;;;;;46.97;30.58;;;;;;;;;;4920105;29;20369;-84
2022/12/24 06:58:19;;;;;;;56.28;32.35;;;;;;;;;;4888760;29;20423;-84
2022/12/24 07:00:47;;;;;;;79.28;37.70;;;;;;;;;;4905571;29;20359;-84
2022/12/24 07:03:14;;;;;;;92.93;41.92;;;;;;;;;;4888642;29;20031;-84
2022/12/24 07:05:41;;;;;;;79.32;39.80;;;;;;;;;;4905604;29;20109;-84
2022/12/24 07:08:08;;;;;;;54.42;30.67;;;;;;;;;;4912270;29;20048;-84
2022/12/24 07:10:34;;;;;;;46.75;29.70;;;;;;;;;;4929707;29;20031;-84
2022/12/24 07:13:00;;;;;;;54.42;32.65;;;;;;;;;;4942795;29;20051;-84
2022/12/24 07:15:26;;;;;;;70.10;38.72;;;;;;;;;;4941012;29;20040;-84
2022/12/24 07:17:52;;;;;;;106.78;49.72;;;;;;;;;;4925912;29;20067;-84
2022/12/24 07:20:18;;;;;;;88.43;45.25;;;;;;;;;;4938669;29;20099;-83
2022/12/24 07:23:02;;;;;;;69.70;40.05;;;;;;;;;;4923610;29;20028;-83
2022/12/24 07:25:29;;;;;;;61.10;36.08;;;;;;;;;;4906305;29;20115;-83
2022/12/24 07:27:55;;;;;;;60.30;34.20;;;;;;;;;;4906598;29;20058;-84
2022/12/24 07:30:21;;;;;;;57.70;32.40;;;;;;;;;;4923772;29;20071;-83
2022/12/24 07:32:47;;;;;;;44.65;27.48;;;;;;;;;;4923960;29;20099;-84
2022/12/24 07:35:13;;;;;;;46.22;28.55;;;;;;;;;;4923459;29;20384;-85
2022/12/24 07:37:39;;;;;;;61.90;37.72;;;;;;;;;;4925238;29;20442;-84
2022/12/24 07:40:08;;;;;;;55.38;31.17;;;;;;;;;;4923554;29;20039;-85
2022/12/24 07:42:35;;;;;;;54.38;32.60;;;;;;;;;;4923511;29;20048;-84
2022/12/24 07:45:01;;;;;;;52.20;30.50;;;;;;;;;;4921895;29;20031;-84
2022/12/24 07:47:27;;;;;;;44.90;27.70;;;;;;;;;;4913783;29;20035;-83
2022/12/24 07:49:53;;;;;;;42.95;25.35;;;;;;;;;;4942274;29;20027;-83
2022/12/24 07:52:19;;;;;;;40.17;25.10;;;;;;;;;;4927262;29;20071;-84
2022/12/24 07:54:45;;;;;;;37.30;23.95;;;;;;;;;;4922889;29;20060;-83
2022/12/24 07:57:11;;;;;;;39.60;24.48;;;;;;;;;;4926298;29;20024;-84
2022/12/24 07:59:38;;;;;;;37.80;23.17;;;;;;;;;;4942325;29;20020;-84
2022/12/24 08:02:04;;;;;;;39.70;24.63;;;;;;;;;;4942255;29;20028;-84
2022/12/24 08:04:35;;;;;;;38.38;22.90;;;;;;;;;;4937351;29;20024;-84
2022/12/24 08:10:05;;;;;;;43.67;28.08;;;;;;;;;;4940038;29;20054;-83
2022/12/24 08:12:31;;;;;;;53.25;29.05;;;;;;;;;;4933437;29;20041;-83
2022/12/24 08:14:57;;;;;;;40.80;25.40;;;;;;;;;;4942020;29;20032;-84
2022/12/24 08:17:23;;;;;;;39.35;24.73;;;;;;;;;;4934999;29;20036;-84
2022/12/24 08:19:49;;;;;;;35.25;21.38;;;;;;;;;;4928106;29;20119;-85
2022/12/24 08:22:33;;;;;;;32.63;20.45;;;;;;;;;;4941624;29;20055;-83
2022/12/24 08:24:59;;;;;;;29.90;19.20;;;;;;;;;;4941724;29;20031;-84
2022/12/24 08:27:25;;;;;;;30.02;20.45;;;;;;;;;;4941923;29;20032;-84
2022/12/24 08:29:51;;;;;;;37.70;20.88;;;;;;;;;;4941574;29;20058;-84
2022/12/24 08:32:17;;;;;;;42.13;25.05;;;;;;;;;;4933804;29;20035;-84
2022/12/24 08:34:43;;;;;;;45.22;28.25;;;;;;;;;;4941579;29;20433;-84
2022/12/24 08:37:09;;;;;;;47.10;29.55;;;;;;;;;;4941588;29;20059;-84
2022/12/24 08:39:35;;;;;;;44.30;28.98;;;;;;;;;;4924557;29;20028;-84
2022/12/24 08:42:01;;;;;;;40.22;25.48;;;;;;;;;;4929140;29;20032;-84
2022/12/24 08:44:28;;;;;;;35.42;23.33;;;;;;;;;;4921841;29;20036;-84
2022/12/24 08:46:54;;;;;;;37.45;22.75;;;;;;;;;;4922188;29;20116;-83
2022/12/24 08:49:20;;;;;;;33.22;21.15;;;;;;;;;;4922186;29;20024;-84
2022/12/24 08:51:46;;;;;;;39.13;23.85;;;;;;;;;;4926867;29;20035;-84
2022/12/24 08:54:12;;;;;;;40.42;24.83;;;;;;;;;;4922141;29;20043;-85
2022/12/24 08:56:38;;;;;;;40.30;24.73;;;;;;;;;;4914967;29;20031;-83
2022/12/24 08:59:04;;;;;;;39.17;24.48;;;;;;;;;;4886568;29;20039;-83
2022/12/24 09:01:30;;;;;;;41.60;24.42;;;;;;;;;;4917993;29;20533;-83
2022/12/24 09:03:56;;;;;;;42.33;24.00;;;;;;;;;;4905219;29;20056;-83
2022/12/24 09:06:23;;;;;;;32.55;21.58;;;;;;;;;;4904443;29;20431;-83
2022/12/24 09:09:01;;;;;;;35.33;20.10;;;;;;;;;;4904141;29;20036;-83
2022/12/24 09:11:27;;;;;;;36.20;20.73;;;;;;;;;;4922016;29;20040;-84
2022/12/24 09:13:54;;;;;;;27.65;18.73;;;;;;;;;;4921540;29;20024;-84
2022/12/24 09:16:20;;;;;;;36.83;24.00;;;;;;;;;;4904432;29;20043;-82
2022/12/24 09:18:46;;;;;;;38.65;22.55;;;;;;;;;;4904660;29;20052;-84
2022/12/24 09:21:14;;;;;;;46.10;26.05;;;;;;;;;;4920796;29;20075;-82
2022/12/24 09:23:42;;;;;;;44.88;25.85;;;;;;;;;;4920716;29;20024;-82
2022/12/24 09:26:15;;;;;;;39.95;23.70;;;;;;;;;;4920988;29;20059;-82
2022/12/24 09:28:41;;;;;;;40.25;23.58;;;;;;;;;;4904128;29;20316;-83
2022/12/24 09:31:08;;;;;;;41.63;23.83;;;;;;;;;;4921277;29;20036;-81
2022/12/24 09:33:35;;;;;;;42.88;24.80;;;;;;;;;;4921110;29;20027;-83
2022/12/24 09:36:02;;;;;;;48.97;24.23;;;;;;;;;;4920788;29;20102;-80
2022/12/24 09:38:29;;;;;;;37.10;21.23;;;;;;;;;;4903438;29;20111;-82
2022/12/24 09:40:56;;;;;;;35.90;20.05;;;;;;;;;;4921066;29;20035;-83
2022/12/24 09:43:23;;;;;;;44.55;23.88;;;;;;;;;;4904179;29;20502;-86
2022/12/24 09:45:56;;;;;;;43.28;25.45;;;;;;;;;;4904780;29;20044;-85
2022/12/24 09:48:25;;;;;;;52.15;29.20;;;;;;;;;;4921309;29;20115;-83
2022/12/24 09:50:54;;;;;;;64.13;33.35;;;;;;;;;;4920747;29;20032;-83
2022/12/24 09:53:38;;;;;;;67.10;37.83;;;;;;;;;;4921325;29;20028;-79
2022/12/24 09:56:10;;;;;;;74.82;38.42;;;;;;;;;;4920748;29;20060;-83
2022/12/24 09:58:41;;;;;;;70.67;36.87;;;;;;;;;;4904577;29;20024;-83
2022/12/24 10:01:10;;;;;;;79.93;38.77;;;;;;;;;;4920963;29;20028;-83
2022/12/24 10:03:36;;;;;;;87.47;46.28;;;;;;;;;;4904081;29;20271;-84
2022/12/24 10:06:12;;;;;;;90.47;48.38;;;;;;;;;;4921107;29;20060;-84
2022/12/24 10:08:41;;;;;;;84.30;43.63;;;;;;;;;;4903812;29;20083;-82
2022/12/24 10:11:10;;;;;;;75.28;41.58;;;;;;;;;;4920783;29;20098;-81
2022/12/24 10:14:02;;;;;;;66.80;38.45;;;;;;;;;;4903988;29;20036;-82
2022/12/24 10:16:29;;;;;;;;;;;;;;;;;;4920158;29;20047;-83
2022/12/24 10:18:58;;;;;;;63.20;34.47;;;;;;;;;;4905769;29;20310;-81
2022/12/24 10:21:30;;;;;;;61.17;34.08;;;;;;;;;;4924388;29;20112;-85
2022/12/24 10:23:56;;;;;;;66.10;35.30;;;;;;;;;;4907969;29;20040;-84
2022/12/24 10:26:34;;;;;;;57.13;33.53;;;;;;;;;;4924968;29;20024;-85
2022/12/24 10:29:21;;;;;;;68.50;39.28;;;;;;;;;;4924342;29;20024;-82
2022/12/24 10:31:56;;;;;;;79.95;46.92;;;;;;;;;;4906855;29;20047;-82
2022/12/24 10:34:24;;;;;;;80.88;46.80;;;;;;;;;;4907345;29;20032;-84
2022/12/24 10:36:50;;;;;;;180.13;96.25;;;;;;;;;;4907190;29;20144;-80
2022/12/24 10:39:18;;;;;;;58.47;34.50;;;;;;;;;;4923714;29;20032;-85
2022/12/24 10:41:46;;;;;;;71.18;38.25;;;;;;;;;;4907421;29;20044;-85
2022/12/24 10:44:16;;;;;;;176.90;82.95;;;;;;;;;;4907951;29;20060;-85
2022/12/24 10:46:42;;;;;;;160.18;78.03;;;;;;;;;;4924209;29;20036;-85
2022/12/24 10:49:14;;;;;;;59.33;33.85;;;;;;;;;;4924405;29;20023;-85
2022/12/24 10:51:45;;;;;;;90.10;44.97;;;;;;;;;;4907659;29;20044;-85
2022/12/24 10:54:13;;;;;;;100.57;47.25;;;;;;;;;;4924343;29;20059;-84
2022/12/24 10:56:41;;;;;;;52.25;30.70;;;;;;;;;;4907570;29;20115;-85
2022/12/24 10:59:21;;;;;;;51.92;30.25;;;;;;;;;;4924241;29;20076;-85
2022/12/24 11:01:49;;;;;;;163.73;93.82;;;;;;;;;;4924186;29;20446;-85
2022/12/24 11:04:23;;;;;;;195.88;99.07;;;;;;;;;;4924402;29;20071;-85
2022/12/24 11:06:52;;;;;;;92.05;50.33;;;;;;;;;;4924186;29;20403;-84
2022/12/24 11:09:23;;;;;;;101.40;55.10;;;;;;;;;;4907131;29;20036;-85
2022/12/24 11:11:49;;;;;;;223.05;115.05;;;;;;;;;;4923902;29;20024;-84
2022/12/24 11:14:17;;;;;;;212.95;110.20;;;;;;;;;;4923079;29;20096;-85
2022/12/24 11:16:53;;;;;;;461.75;258.90;;;;;;;;;;4906790;29;20028;-83
2022/12/24 11:19:23;;;;;;;226.20;111.35;;;;;;;;;;4923858;29;20024;-85
2022/12/24 11:21:57;;;;;;;115.25;59.38;;;;;;;;;;4907260;29;20331;-85
2022/12/24 11:24:23;;;;;;;138.82;74.40;;;;;;;;;;4907257;29;20323;-85
2022/12/24 11:26:49;;;;;;;62.20;34.42;;;;;;;;;;4907062;29;20036;-85
2022/12/24 11:29:18;;;;;;;72.05;39.63;;;;;;;;;;4924025;29;20292;-85
2022/12/24 11:31:45;;;;;;;69.93;42.33;;;;;;;;;;4923287;29;20031;-84
2022/12/24 11:34:31;;;;;;;110.15;63.88;;;;;;;;;;4923583;29;20024;-85
2022/12/24 11:37:09;;;;;;;80.90;46.08;;;;;;;;;;4923758;29;20020;-85
2022/12/24 11:42:39;;;;;;;157.23;82.90;;;;;;;;;;4923058;29;20028;-85
2022/12/24 11:45:08;;;;;;;106.45;57.75;;;;;;;;;;4923707;29;20028;-85
2022/12/24 11:47:35;;;;;;;91.43;47.30;;;;;;;;;;4906515;29;20027;-85
2022/12/24 11:50:31;;;;;;;196.73;105.50;;;;;;;;;;4923255;29;20523;-85
2022/12/24 11:53:03;;;;;;;103.88;51.67;;;;;;;;;;4828735;29;20057;-85
2022/12/24 11:55:29;;;;;;;;;;;;;;;;;;4829369;29;20038;-85
2022/12/24 11:58:00;;;;;;;555.95;318.52;;;;;;;;;;4828313;29;19972;-86
2022/12/24 12:00:27;;;;;;;161.77;83.90;;;;;;;;;;4817948;29;20047;-84
2022/12/24 12:02:55;;;;;;;269.55;131.25;;;;;;;;;;4828032;29;20076;-83
2022/12/24 12:05:24;;;;;;;91.88;49.97;;;;;;;;;;4828375;29;20067;-84
2022/12/24 12:07:52;;;;;;;58.85;38.63;;;;;;;;;;4828518;29;20059;-84
2022/12/24 12:10:21;;;;;;;154.80;74.65;;;;;;;;;;4828395;29;20050;-84
2022/12/24 12:13:02;;;;;;;66.05;40.72;;;;;;;;;;4828456;29;20058;-84
2022/12/24 12:15:32;;;;;;;273.15;127.82;;;;;;;;;;4812888;29;20072;-85
2022/12/24 12:18:04;;;;;;;59.80;35.88;;;;;;;;;;4828360;29;20041;-85
2022/12/24 12:20:48;;;;;;;61.58;36.35;;;;;;;;;;4828385;29;20030;-85
2022/12/24 12:23:19;;;;;;;107.05;58.22;;;;;;;;;;4828237;29;20034;-85
2022/12/24 12:25:57;;;;;;;161.50;82.40;;;;;;;;;;4828291;29;20062;-85
2022/12/24 12:28:23;;;;;;;244.93;125.20;;;;;;;;;;4822298;29;20134;-85
2022/12/24 12:30:56;;;;;;;282.80;143.95;;;;;;;;;;4904113;29;20049;-84
2022/12/24 12:33:26;;;;;;;103.68;55.38;;;;;;;;;;4903881;29;20037;-85
2022/12/24 12:35:53;;;;;;;101.55;54.55;;;;;;;;;;4903723;29;20080;-85
2022/12/24 12:38:56;;;;;;;76.57;44.90;;;;;;;;;;4903589;29;20039;-84
2022/12/24 12:41:25;;;;;;;56.55;36.28;;;;;;;;;;4884295;29;20032;-85
2022/12/24 12:43:58;;;;;;;55.85;33.97;;;;;;;;;;4883494;29;20021;-85
2022/12/24 12:46:33;;;;;;;62.35;36.35;;;;;;;;;;4885215;29;20112;-85
2022/12/24 12:49:14;;;;;;;59.13;37.75;;;;;;;;;;4894627;29;20139;-85
2022/12/24 12:51:59;;;;;;;57.20;36.60;;;;;;;;;;4922325;29;20036;-85
2022/12/24 12:54:34;;;;;;;65.53;38.22;;;;;;;;;;4905606;29;20043;-85
2022/12/24 12:57:07;;;;;;;68.85;38.47;;;;;;;;;;4922610;29;20055;-85
2022/12/24 12:59:39;;;;;;;283.98;113.10;;;;;;;;;;4907907;29;20092;-85
2022/12/24 13:02:25;;;;;;;139.10;74.47;;;;;;;;;;4903327;29;20421;-85
2022/12/24 13:05:14;;;;;;;431.05;175.38;;;;;;;;;;4902586;29;20028;-86
2022/12/24 13:07:40;;;;;;;67.35;43.47;;;;;;;;;;4903294;29;20032;-85
2022/12/24 13:10:12;;;;;;;77.85;44.70;;;;;;;;;;4910870;29;20138;-84
2022/12/24 13:12:44;;;;;;;76.85;43.13;;;;;;;;;;4922341;29;20057;-85
2022/12/24 13:15:14;;;;;;;128.45;60.20;;;;;;;;;;4905045;29;20070;-84
2022/12/24 13:18:10;;;;;;;57.22;36.63;;;;;;;;;;4921952;29;20051;-85
2022/12/24 13:20:42;;;;;;;102.82;52.35;;;;;;;;;;4841829;29;20432;-85
2022/12/24 13:23:13;;;;;;;73.82;42.63;;;;;;;;;;4848589;29;20030;-85
2022/12/24 13:25:41;;;;;;;270.90;118.75;;;;;;;;;;4848679;29;20056;-84
2022/12/24 13:28:16;;;;;;;62.35;38.63;;;;;;;;;;4848064;29;20233;-85
2022/12/24 13:30:43;;;;;;;87.90;47.67;;;;;;;;;;4848555;29;20061;-85
2022/12/24 13:33:13;;;;;;;108.25;56.70;;;;;;;;;;4863902;29;20041;-84
2022/12/24 13:35:58;;;;;;;58.63;37.88;;;;;;;;;;4863628;29;20029;-84
2022/12/24 13:38:41;;;;;;;69.45;39.95;;;;;;;;;;4848337;29;20457;-86
2022/12/24 13:41:37;;;;;;;57.83;36.03;;;;;;;;;;4847402;29;20041;-85
2022/12/24 13:44:06;;;;;;;71.97;42.95;;;;;;;;;;4862614;29;20071;-86
2022/12/24 13:46:51;;;;;;;389.55;195.65;;;;;;;;;;4863834;29;20215;-85
2022/12/24 13:49:36;;;;;;;151.32;89.63;;;;;;;;;;4863736;29;20034;-85
2022/12/24 13:52:06;;;;;;;114.05;70.47;;;;;;;;;;4848255;29;20337;-85
2022/12/24 13:57:35;;;;;;;109.00;71.82;;;;;;;;;;4893136;29;20031;-86
2022/12/24 14:00:20;;;;;;;120.78;81.00;;;;;;;;;;4905838;29;20024;-86
2022/12/24 14:02:49;;;;;;;110.20;75.28;;;;;;;;;;4904718;29;20075;-86
2022/12/24 14:05:18;;;;;;;201.50;114.63;;;;;;;;;;4921154;29;20039;-86
2022/12/24 14:07:49;;;;;;;79.57;52.60;;;;;;;;;;4921418;29;20080;-85
2022/12/24 14:10:37;;;;;;;68.82;44.80;;;;;;;;;;4920560;29;20458;-86
2022/12/24 14:13:08;;;;;;;98.38;52.35;;;;;;;;;;4920955;29;20024;-86
2022/12/24 14:15:49;;;;;;;114.67;67.20;;;;;;;;;;4921291;29;20029;-86
2022/12/24 14:18:19;;;;;;;94.68;56.58;;;;;;;;;;4903995;29;20047;-86
2022/12/24 14:20:50;;;;;;;86.13;55.28;;;;;;;;;;4921284;29;20036;-86
2022/12/24 14:23:36;;;;;;;137.70;77.43;;;;;;;;;;4920571;29;20111;-85
2022/12/24 14:26:03;;;;;;;74.88;46.78;;;;;;;;;;4920857;29;20031;-85
2022/12/24 14:28:38;;;;;;;68.63;47.40;;;;;;;;;;4903515;29;20038;-84
2022/12/24 14:31:05;;;;;;;68.93;45.90;;;;;;;;;;4921374;29;20036;-86
2022/12/24 14:33:32;;;;;;;80.55;51.20;;;;;;;;;;4904104;29;20039;-85
2022/12/24 14:35:59;;;;;;;74.85;46.88;;;;;;;;;;4904408;29;20031;-85
2022/12/24 14:38:25;;;;;;;125.40;67.35;;;;;;;;;;4921191;29;20040;-85
2022/12/24 14:41:10;;;;;;;103.95;62.75;;;;;;;;;;4920429;29;20434;-85
2022/12/24 14:43:45;;;;;;;136.63;77.75;;;;;;;;;;4920533;29;20111;-85
2022/12/24 14:46:27;;;;;;;97.57;61.78;;;;;;;;;;4904317;29;20046;-85
2022/12/24 14:48:56;;;;;;;109.85;71.50;;;;;;;;;;4904234;29;20029;-85
2022/12/24 14:51:34;;;;;;;105.65;67.75;;;;;;;;;;4917810;29;20048;-85
2022/12/24 14:54:09;;;;;;;115.32;69.70;;;;;;;;;;4920909;29;20035;-85
2022/12/24 14:56:35;;;;;;;125.90;72.95;;;;;;;;;;4904125;29;20422;-85